createdAt,value
2018-09-17T00:00:02.220Z,3.93
2018-09-17T00:02:29.534Z,3.83
2018-09-17T00:04:56.855Z,3.63
2018-09-17T00:07:24.168Z,4.33
2018-09-17T00:09:51.844Z,3.93
2018-09-17T00:12:19.184Z,4.07
2018-09-17T00:14:46.459Z,4.03
2018-09-17T00:17:13.769Z,3.90
2018-09-17T00:19:41.076Z,4.37
2018-09-17T00:22:08.368Z,3.97
2018-09-17T00:24:35.675Z,4.10
2018-09-17T00:27:02.980Z,3.93
2018-09-17T00:29:30.681Z,3.97
2018-09-17T00:31:57.983Z,4.20
2018-09-17T00:34:25.293Z,4.67
2018-09-17T00:36:52.587Z,4.17
2018-09-17T00:39:19.903Z,4.47
2018-09-17T00:41:47.199Z,4.10
2018-09-17T00:44:14.503Z,4.50
2018-09-17T00:46:41.837Z,4.30
2018-09-17T00:49:09.120Z,4.53
2018-09-17T00:51:36.463Z,4.23
2018-09-17T00:54:04.003Z,4.67
2018-09-17T00:56:31.303Z,4.43
2018-09-17T00:58:58.626Z,3.80
2018-09-17T01:01:25.979Z,5.37
2018-09-17T01:03:53.298Z,4.20
2018-09-17T01:06:20.639Z,4.27
2018-09-17T01:08:47.996Z,4.13
2018-09-17T01:11:15.332Z,4.53
2018-09-17T01:13:42.633Z,4.30
2018-09-17T01:16:09.930Z,4.80
2018-09-17T01:18:37.249Z,5.00
2018-09-17T01:21:04.597Z,4.67
2018-09-17T01:23:31.959Z,4.53
2018-09-17T01:25:59.260Z,4.33
2018-09-17T01:28:26.572Z,4.20
2018-09-17T01:30:53.883Z,4.23
2018-09-17T01:33:21.314Z,4.70
2018-09-17T01:35:48.607Z,4.30
2018-09-17T01:38:15.954Z,4.37
2018-09-17T01:40:43.262Z,4.50
2018-09-17T01:43:11.514Z,4.53
2018-09-17T01:45:38.828Z,4.33
2018-09-17T01:48:06.161Z,4.03
2018-09-17T01:50:33.473Z,4.13
2018-09-17T01:53:00.794Z,4.20
2018-09-17T01:55:28.152Z,4.70
2018-09-17T01:57:55.452Z,4.23
2018-09-17T02:00:23.007Z,4.63
2018-09-17T02:02:50.321Z,5.00
2018-09-17T02:05:17.636Z,4.67
2018-09-17T02:07:44.925Z,5.10
2018-09-17T02:10:12.244Z,4.80
2018-09-17T02:12:39.769Z,4.60
2018-09-17T02:15:07.115Z,4.40
2018-09-17T02:17:34.479Z,5.30
2018-09-17T02:20:02.050Z,4.17
2018-09-17T02:22:29.439Z,4.90
2018-09-17T02:24:56.783Z,4.93
2018-09-17T02:27:24.159Z,5.23
2018-09-17T02:29:51.661Z,5.57
2018-09-17T02:32:18.957Z,5.07
2018-09-17T02:37:20.283Z,5.43
2018-09-17T02:39:47.582Z,4.80
2018-09-17T02:42:14.880Z,4.60
2018-09-17T02:44:42.215Z,4.20
2018-09-17T02:47:09.527Z,4.27
2018-09-17T02:49:36.823Z,4.57
2018-09-17T02:52:04.167Z,4.57
2018-09-17T02:54:31.525Z,4.33
2018-09-17T02:56:58.836Z,4.33
2018-09-17T02:59:26.174Z,4.90
2018-09-17T03:01:53.783Z,4.93
2018-09-17T03:04:21.071Z,4.87
2018-09-17T03:06:48.391Z,4.67
2018-09-17T03:09:15.698Z,4.77
2018-09-17T03:11:43.006Z,4.80
2018-09-17T03:14:10.327Z,5.10
2018-09-17T03:16:49.107Z,4.70
2018-09-17T03:19:16.424Z,4.57
2018-09-17T03:21:43.739Z,4.80
2018-09-17T03:24:11.050Z,4.30
2018-09-17T03:26:38.524Z,4.67
2018-09-17T03:29:05.811Z,4.50
2018-09-17T03:31:33.127Z,4.67
2018-09-17T03:34:00.444Z,4.60
2018-09-17T03:36:27.757Z,4.47
2018-09-17T03:38:55.096Z,4.70
2018-09-17T03:41:22.443Z,4.60
2018-09-17T03:43:51.139Z,4.50
2018-09-17T03:46:18.520Z,4.73
2018-09-17T03:48:45.871Z,4.37
2018-09-17T03:51:13.611Z,4.30
2018-09-17T03:53:41.231Z,4.17
2018-09-17T03:56:08.583Z,3.97
2018-09-17T03:58:35.927Z,5.10
2018-09-17T04:01:03.737Z,4.67
2018-09-17T04:03:31.207Z,4.73
2018-09-17T04:05:58.676Z,4.70
2018-09-17T04:08:26.035Z,4.50
2018-09-17T04:10:53.349Z,4.97
2018-09-17T04:13:20.714Z,4.60
2018-09-17T04:15:48.036Z,4.90
2018-09-17T04:18:15.335Z,4.70
2018-09-17T04:20:42.664Z,4.50
2018-09-17T04:23:09.983Z,4.70
2018-09-17T04:25:37.299Z,4.73
2018-09-17T04:28:04.881Z,5.07
2018-09-17T04:30:32.199Z,4.10
2018-09-17T04:33:00.095Z,4.63
2018-09-17T04:35:27.443Z,5.07
2018-09-17T04:37:54.788Z,4.90
2018-09-17T04:40:22.125Z,4.80
2018-09-17T04:42:49.475Z,4.97
2018-09-17T04:45:16.849Z,5.07
2018-09-17T04:47:44.172Z,4.87
2018-09-17T04:50:11.494Z,5.53
2018-09-17T04:52:38.809Z,4.73
2018-09-17T04:55:06.189Z,4.27
2018-09-17T04:57:33.501Z,5.00
2018-09-17T05:00:00.833Z,4.47
2018-09-17T05:02:28.187Z,5.17
2018-09-17T05:04:55.527Z,5.40
2018-09-17T05:07:22.931Z,5.10
2018-09-17T05:09:50.215Z,5.23
2018-09-17T05:12:18.151Z,5.07
2018-09-17T05:14:45.834Z,5.47
2018-09-17T05:17:13.163Z,6.00
2018-09-17T05:19:40.487Z,4.93
2018-09-17T05:22:07.806Z,5.70
2018-09-17T05:24:35.119Z,5.40
2018-09-17T05:27:02.411Z,5.40
2018-09-17T05:29:29.724Z,5.50
2018-09-17T05:31:57.088Z,4.97
2018-09-17T05:34:24.411Z,5.60
2018-09-17T05:36:51.733Z,5.63
2018-09-17T05:39:19.081Z,5.47
2018-09-17T05:41:46.421Z,5.33
2018-09-17T05:44:13.772Z,5.17
2018-09-17T05:46:41.081Z,5.00
2018-09-17T05:49:08.376Z,6.17
2018-09-17T05:51:35.936Z,6.53
2018-09-17T05:54:03.335Z,5.77
2018-09-17T05:56:30.647Z,5.70
2018-09-17T05:58:57.992Z,7.13
2018-09-17T06:01:25.369Z,8.70
2018-09-17T06:03:53.466Z,8.63
2018-09-17T06:06:20.799Z,7.57
2018-09-17T06:08:48.148Z,9.03
2018-09-17T06:11:15.496Z,8.17
2018-09-17T06:13:42.808Z,8.00
2018-09-17T06:16:10.140Z,7.20
2018-09-17T06:18:37.499Z,7.40
2018-09-17T06:21:05.133Z,7.33
2018-09-17T06:23:32.448Z,7.60
2018-09-17T06:25:59.811Z,7.00
2018-09-17T06:28:27.112Z,7.40
2018-09-17T06:30:54.449Z,8.10
2018-09-17T06:33:21.759Z,7.07
2018-09-17T06:35:49.078Z,6.27
2018-09-17T06:38:16.404Z,7.93
2018-09-17T06:40:43.753Z,9.23
2018-09-17T06:43:11.063Z,9.37
2018-09-17T06:45:38.380Z,8.50
2018-09-17T06:48:05.908Z,8.87
2018-09-17T06:50:33.357Z,8.87
2018-09-17T06:53:01.019Z,8.33
2018-09-17T06:55:28.384Z,8.90
2018-09-17T06:57:55.711Z,8.97
2018-09-17T07:00:23.038Z,8.50
2018-09-17T07:02:50.443Z,9.27
2018-09-17T07:05:17.752Z,9.27
2018-09-17T07:07:45.060Z,9.33
2018-09-17T07:10:12.387Z,8.03
2018-09-17T07:12:39.698Z,8.67
2018-09-17T07:15:07.080Z,8.20
2018-09-17T07:17:34.393Z,9.20
2018-09-17T07:20:01.717Z,9.37
2018-09-17T07:22:29.063Z,8.77
2018-09-17T07:24:56.415Z,7.87
2018-09-17T07:27:24.084Z,8.80
2018-09-17T07:29:51.485Z,8.43
2018-09-17T07:32:18.879Z,8.47
2018-09-17T07:34:46.320Z,9.70
2018-09-17T07:37:13.662Z,8.73
2018-09-17T07:39:41.020Z,8.13
2018-09-17T07:42:08.428Z,8.10
2018-09-17T07:44:35.728Z,8.60
2018-09-17T07:47:03.167Z,8.23
2018-09-17T07:49:30.633Z,8.43
2018-09-17T07:51:57.952Z,8.03
2018-09-17T07:54:25.304Z,7.87
2018-09-17T07:56:52.669Z,7.97
2018-09-17T07:59:20.011Z,8.07
2018-09-17T08:01:47.344Z,8.67
2018-09-17T08:04:14.672Z,7.40
2018-09-17T08:06:41.984Z,8.50
2018-09-17T08:09:11.616Z,7.63
2018-09-17T08:11:39.471Z,7.50
2018-09-17T08:14:06.924Z,6.93
2018-09-17T08:16:34.370Z,7.93
2018-09-17T08:19:01.676Z,7.90
2018-09-17T08:21:29.015Z,7.00
2018-09-17T08:23:56.378Z,7.47
2018-09-17T08:26:23.706Z,6.50
2018-09-17T08:28:51.051Z,7.20
2018-09-17T08:31:18.405Z,6.77
2018-09-17T08:33:45.753Z,7.27
2018-09-17T08:36:13.115Z,6.57
2018-09-17T08:38:40.456Z,6.87
2018-09-17T08:41:08.005Z,6.80
2018-09-17T08:43:35.368Z,6.40
2018-09-17T08:46:02.751Z,6.43
2018-09-17T08:48:30.061Z,6.03
2018-09-17T08:50:57.402Z,6.43
2018-09-17T08:53:24.753Z,5.53
2018-09-17T08:55:59.055Z,6.13
2018-09-17T08:58:30.952Z,5.77
2018-09-17T09:01:02.393Z,5.83
2018-09-17T09:03:37.708Z,6.00
2018-09-17T09:06:10.765Z,5.50
2018-09-17T09:08:38.141Z,5.53
2018-09-17T09:11:12.215Z,7.20
2018-09-17T09:13:45.193Z,5.43
2018-09-17T09:16:12.568Z,5.33
2018-09-17T09:18:39.903Z,5.53
2018-09-17T09:21:07.257Z,5.63
2018-09-17T09:23:34.592Z,5.47
2018-09-17T09:26:02.943Z,5.63
2018-09-17T09:28:30.269Z,5.73
2018-09-17T09:30:57.630Z,5.03
2018-09-17T09:33:24.967Z,5.63
2018-09-17T09:35:52.275Z,5.33
2018-09-17T09:38:19.620Z,5.27
2018-09-17T09:40:47.005Z,5.10
2018-09-17T09:43:14.374Z,4.23
2018-09-17T09:45:41.717Z,4.47
2018-09-17T09:48:09.034Z,4.40
2018-09-17T09:50:36.385Z,4.60
2018-09-17T09:53:03.757Z,4.40
2018-09-17T09:55:31.104Z,4.27
2018-09-17T09:57:58.443Z,4.17
2018-09-17T10:00:31.496Z,3.57
2018-09-17T10:03:05.475Z,3.73
2018-09-17T10:05:32.808Z,3.40
2018-09-17T10:08:00.147Z,3.10
2018-09-17T10:10:33.136Z,4.03
2018-09-17T10:14:04.981Z,3.57
2018-09-17T10:16:32.363Z,3.50
2018-09-17T10:19:05.433Z,4.07
2018-09-17T10:21:32.828Z,3.60
2018-09-17T10:24:00.211Z,3.83
2018-09-17T10:26:27.548Z,4.10
2018-09-17T10:28:55.108Z,3.70
2018-09-17T10:31:22.463Z,3.30
2018-09-17T10:33:49.798Z,3.37
2018-09-17T10:36:17.109Z,4.30
2018-09-17T10:38:44.438Z,4.37
2018-09-17T10:41:11.799Z,3.93
2018-09-17T10:43:39.159Z,3.47
2018-09-17T10:46:06.516Z,4.20
2018-09-17T10:48:33.920Z,3.30
2018-09-17T10:51:01.607Z,3.67
2018-09-17T10:53:28.937Z,3.23
2018-09-17T10:55:56.294Z,3.20
2018-09-17T10:58:23.676Z,4.20
2018-09-17T11:00:51.031Z,3.67
2018-09-17T11:03:18.415Z,3.00
2018-09-17T11:05:45.799Z,3.60
2018-09-17T11:08:13.163Z,2.50
2018-09-17T11:10:40.517Z,3.30
2018-09-17T11:13:07.925Z,2.30
2018-09-17T11:15:41.085Z,2.43
2018-09-17T11:18:08.459Z,2.80
2018-09-17T11:20:35.943Z,3.10
2018-09-17T11:23:03.337Z,2.30
2018-09-17T11:25:30.679Z,2.50
2018-09-17T11:27:58.065Z,2.33
2018-09-17T11:30:25.419Z,3.07
2018-09-17T11:32:52.787Z,2.40
2018-09-17T11:35:20.563Z,3.37
2018-09-17T11:37:48.121Z,2.90
2018-09-17T11:40:15.447Z,2.37
2018-09-17T11:42:42.960Z,2.53
2018-09-17T11:45:10.396Z,2.33
2018-09-17T11:47:37.749Z,2.40
2018-09-17T11:50:05.209Z,2.80
2018-09-17T11:52:32.884Z,2.87
2018-09-17T11:55:00.220Z,2.57
2018-09-17T11:57:28.101Z,2.70
2018-09-17T11:59:55.431Z,3.20
2018-09-17T12:02:28.381Z,2.97
2018-09-17T12:04:55.762Z,2.20
2018-09-17T12:07:28.838Z,3.00
2018-09-17T12:09:56.154Z,2.40
2018-09-17T12:12:23.534Z,2.80
2018-09-17T12:14:50.944Z,2.70
2018-09-17T12:17:18.272Z,2.90
2018-09-17T12:19:45.631Z,3.27
2018-09-17T12:22:12.948Z,2.90
2018-09-17T12:24:40.457Z,2.50
2018-09-17T12:27:07.819Z,2.87
2018-09-17T12:29:35.200Z,3.08
2018-09-17T12:32:02.545Z,2.98
2018-09-17T12:34:29.879Z,2.58
2018-09-17T12:36:57.531Z,2.70
2018-09-17T12:39:24.856Z,2.65
2018-09-17T12:41:52.231Z,3.00
2018-09-17T12:44:19.563Z,2.80
2018-09-17T12:46:47.100Z,3.27
2018-09-17T12:49:14.459Z,2.60
2018-09-17T12:51:41.792Z,2.72
2018-09-17T12:54:09.201Z,3.25
2018-09-17T12:56:36.622Z,2.35
2018-09-17T12:59:03.968Z,3.33
2018-09-17T13:01:31.531Z,3.40
2018-09-17T13:03:58.904Z,3.20
2018-09-17T13:06:26.255Z,2.58
2018-09-17T13:08:53.751Z,3.30
2018-09-17T13:11:21.066Z,2.92
2018-09-17T13:13:48.420Z,3.15
2018-09-17T13:16:15.750Z,3.12
2018-09-17T13:18:43.268Z,2.90
2018-09-17T13:21:10.584Z,3.27
2018-09-17T13:23:37.964Z,3.10
2018-09-17T13:26:05.378Z,3.15
2018-09-17T13:28:32.805Z,3.07
2018-09-17T13:31:00.148Z,3.17
2018-09-17T13:33:27.483Z,3.00
2018-09-17T13:35:54.800Z,2.83
2018-09-17T13:38:22.128Z,2.80
2018-09-17T13:40:49.525Z,2.52
2018-09-17T13:43:16.923Z,3.27
2018-09-17T13:45:44.247Z,3.00
2018-09-17T13:48:11.619Z,3.00
2018-09-17T13:50:39.043Z,3.10
2018-09-17T13:53:06.405Z,2.75
2018-09-17T13:55:33.789Z,2.87
2018-09-17T13:58:01.140Z,3.60
2018-09-17T14:00:28.478Z,3.40
2018-09-17T14:02:55.841Z,3.00
2018-09-17T14:05:23.200Z,3.10
2018-09-17T14:07:50.572Z,3.08
2018-09-17T14:10:18.004Z,3.40
2018-09-17T14:12:45.269Z,3.30
2018-09-17T14:15:12.611Z,3.17
2018-09-17T14:17:40.007Z,3.20
2018-09-17T14:20:07.323Z,3.40
2018-09-17T14:22:34.664Z,3.30
2018-09-17T14:25:02.006Z,3.70
2018-09-17T14:27:29.383Z,3.33
2018-09-17T14:29:56.748Z,2.90
2018-09-17T14:32:29.754Z,3.22
2018-09-17T14:34:57.125Z,3.25
2018-09-17T14:37:24.462Z,3.17
2018-09-17T14:39:51.817Z,3.05
2018-09-17T14:42:19.151Z,3.30
2018-09-17T14:44:53.385Z,2.75
2018-09-17T14:47:20.708Z,3.12
2018-09-17T14:49:48.055Z,3.15
2018-09-17T14:52:15.406Z,3.10
2018-09-17T14:54:42.820Z,2.87
2018-09-17T14:57:10.039Z,2.60
2018-09-17T14:59:37.408Z,2.70
2018-09-17T15:02:04.737Z,2.67
2018-09-17T15:04:32.091Z,3.33
2018-09-17T15:06:59.448Z,3.20
2018-09-17T15:09:26.779Z,2.95
2018-09-17T15:11:54.140Z,3.20
2018-09-17T15:14:21.651Z,3.08
2018-09-17T15:16:48.912Z,2.62
2018-09-17T15:19:16.262Z,2.70
2018-09-17T15:21:43.615Z,2.95
2018-09-17T15:24:11.078Z,2.67
2018-09-17T15:26:38.318Z,3.15
2018-09-17T15:29:05.652Z,3.05
2018-09-17T15:31:32.983Z,2.92
2018-09-17T15:34:00.341Z,3.08
2018-09-17T15:36:27.691Z,2.75
2018-09-17T15:38:55.023Z,2.98
2018-09-17T15:41:22.494Z,2.67
2018-09-17T15:43:49.682Z,3.47
2018-09-17T15:46:17.095Z,3.17
2018-09-17T15:48:44.421Z,2.60
2018-09-17T15:51:11.790Z,3.60
2018-09-17T15:53:39.103Z,2.72
2018-09-17T15:56:06.620Z,3.02
2018-09-17T15:58:33.921Z,2.67
2018-09-17T16:01:01.227Z,2.85
2018-09-17T16:03:28.548Z,3.62
2018-09-17T16:05:55.879Z,6.75
2018-09-17T16:08:23.200Z,7.08
2018-09-17T16:10:50.610Z,4.92
2018-09-17T16:13:18.143Z,4.12
2018-09-17T16:15:46.929Z,2.70
2018-09-17T16:18:14.692Z,2.37
2018-09-17T16:20:42.038Z,2.70
2018-09-17T16:23:09.438Z,2.17
2018-09-17T16:25:36.764Z,3.30
2018-09-17T16:28:04.323Z,2.30
2018-09-17T16:30:31.627Z,3.10
2018-09-17T16:32:58.981Z,3.27
2018-09-17T16:35:26.303Z,2.50
2018-09-17T16:37:53.606Z,3.20
2018-09-17T16:40:21.556Z,2.33
2018-09-17T16:42:48.895Z,2.50
2018-09-17T16:45:16.412Z,3.80
2018-09-17T16:47:43.825Z,7.33
2018-09-17T16:50:11.151Z,3.50
2018-09-17T16:52:38.541Z,1.97
2018-09-17T16:55:05.876Z,2.27
2018-09-17T16:57:33.179Z,1.83
2018-09-17T17:00:00.519Z,2.37
2018-09-17T17:02:27.840Z,2.00
2018-09-17T17:04:55.201Z,1.90
2018-09-17T17:07:22.807Z,1.90
2018-09-17T17:09:50.137Z,2.10
2018-09-17T17:12:17.479Z,1.77
2018-09-17T17:14:44.829Z,1.97
2018-09-17T17:17:12.171Z,2.03
2018-09-17T17:19:39.517Z,1.90
2018-09-17T17:22:07.052Z,2.00
2018-09-17T17:24:34.887Z,2.10
2018-09-17T17:27:02.223Z,2.00
2018-09-17T17:29:29.585Z,1.90
2018-09-17T17:31:56.962Z,2.27
2018-09-17T17:34:24.323Z,1.70
2018-09-17T17:36:52.015Z,1.93
2018-09-17T17:39:19.409Z,1.73
2018-09-17T17:41:46.687Z,1.90
2018-09-17T17:44:14.205Z,1.97
2018-09-17T17:46:41.521Z,2.07
2018-09-17T17:49:08.872Z,2.17
2018-09-17T17:51:36.219Z,2.13
2018-09-17T17:54:03.572Z,1.87
2018-09-17T17:56:30.868Z,2.07
2018-09-17T17:58:58.230Z,2.00
2018-09-17T18:01:25.659Z,1.93
2018-09-17T18:03:53.000Z,2.00
2018-09-17T18:06:20.343Z,2.23
2018-09-17T18:08:47.675Z,1.97
2018-09-17T18:11:15.043Z,2.70
2018-09-17T18:13:42.373Z,3.30
2018-09-17T18:16:09.700Z,2.90
2018-09-17T18:18:37.016Z,2.20
2018-09-17T18:21:04.676Z,2.63
2018-09-17T18:23:31.935Z,2.17
2018-09-17T18:25:59.325Z,2.47
2018-09-17T18:28:26.643Z,2.00
2018-09-17T18:30:53.944Z,2.20
2018-09-17T18:33:21.304Z,3.27
2018-09-17T18:35:48.613Z,2.10
2018-09-17T18:38:16.047Z,1.87
2018-09-17T18:40:43.383Z,2.13
2018-09-17T18:43:10.715Z,2.07
2018-09-17T18:45:38.036Z,2.30
2018-09-17T18:48:05.439Z,1.90
2018-09-17T18:50:32.744Z,2.40
2018-09-17T18:53:00.123Z,2.27
2018-09-17T18:55:27.447Z,2.17
2018-09-17T18:57:54.813Z,2.63
2018-09-17T19:00:22.186Z,2.00
2018-09-17T19:02:49.612Z,2.17
2018-09-17T19:05:16.890Z,2.30
2018-09-17T19:07:44.287Z,2.30
2018-09-17T19:10:11.612Z,2.40
2018-09-17T19:12:39.003Z,2.50
2018-09-17T19:15:12.659Z,2.60
2018-09-17T19:17:42.056Z,2.37
2018-09-17T19:20:10.663Z,2.33
2018-09-17T19:22:44.049Z,2.20
2018-09-17T19:25:13.914Z,2.03
2018-09-17T19:27:47.661Z,2.67
2018-09-17T19:30:15.561Z,2.43
2018-09-17T19:32:43.136Z,2.30
2018-09-17T19:35:10.509Z,2.63
2018-09-17T19:37:43.668Z,2.47
2018-09-17T19:40:22.144Z,2.40
2018-09-17T19:42:50.080Z,2.30
2018-09-17T19:45:23.088Z,2.30
2018-09-17T19:47:51.289Z,2.90
2018-09-17T19:50:24.628Z,2.73
2018-09-17T19:52:51.929Z,2.60
2018-09-17T19:55:19.361Z,2.00
2018-09-17T19:57:52.525Z,2.63
2018-09-17T20:00:19.872Z,2.20
2018-09-17T20:02:47.199Z,2.53
2018-09-17T20:05:20.370Z,2.40
2018-09-17T20:07:48.034Z,2.43
2018-09-17T20:10:15.435Z,2.20
2018-09-17T20:12:42.785Z,2.43
2018-09-17T20:15:10.172Z,2.20
2018-09-17T20:17:37.520Z,3.23
2018-09-17T20:20:04.919Z,3.03
2018-09-17T20:22:32.257Z,2.63
2018-09-17T20:24:59.595Z,2.80
2018-09-17T20:27:26.940Z,2.50
2018-09-17T20:29:54.283Z,2.50
2018-09-17T20:32:21.664Z,2.73
2018-09-17T20:34:49.075Z,2.50
2018-09-17T20:37:16.609Z,2.27
2018-09-17T20:39:43.991Z,2.50
2018-09-17T20:42:11.956Z,2.47
2018-09-17T20:44:39.450Z,2.77
2018-09-17T20:47:06.797Z,2.70
2018-09-17T20:49:34.180Z,2.60
2018-09-17T20:52:01.596Z,2.60
2018-09-17T20:54:28.907Z,2.60
2018-09-17T20:56:56.238Z,2.57
2018-09-17T20:59:23.541Z,2.60
2018-09-17T21:01:51.023Z,2.73
2018-09-17T21:04:18.429Z,2.90
2018-09-17T21:06:45.778Z,2.93
2018-09-17T21:09:13.135Z,3.80
2018-09-17T21:11:40.896Z,3.23
2018-09-17T21:14:08.220Z,3.20
2018-09-17T21:16:35.982Z,3.17
2018-09-17T21:19:03.379Z,3.40
2018-09-17T21:21:30.675Z,2.87
2018-09-17T21:23:57.995Z,3.20
2018-09-17T21:26:25.344Z,3.10
2018-09-17T21:28:52.729Z,3.63
2018-09-17T21:31:20.387Z,3.50
2018-09-17T21:33:47.798Z,3.43
2018-09-17T21:36:15.143Z,3.37
2018-09-17T21:38:42.490Z,4.20
2018-09-17T21:41:09.808Z,2.80
2018-09-17T21:43:37.175Z,3.07
2018-09-17T21:46:04.525Z,3.10
2018-09-17T21:48:31.850Z,3.80
2018-09-17T21:50:59.181Z,3.10
2018-09-17T21:53:26.486Z,3.57
2018-09-17T21:55:53.807Z,3.73
2018-09-17T21:58:21.171Z,3.73
2018-09-17T22:00:54.363Z,3.73
2018-09-17T22:03:21.716Z,3.33
2018-09-17T22:05:49.071Z,4.40
2018-09-17T22:08:16.415Z,4.10
2018-09-17T22:10:43.743Z,4.60
2018-09-17T22:13:11.083Z,4.70
2018-09-17T22:15:38.468Z,5.10
2018-09-17T22:18:05.859Z,5.23
2018-09-17T22:20:33.171Z,4.97
2018-09-17T22:23:00.680Z,6.17
2018-09-17T22:25:27.985Z,5.67
2018-09-17T22:27:55.318Z,6.27
2018-09-17T22:30:22.705Z,6.63
2018-09-17T22:32:50.013Z,6.60
2018-09-17T22:35:17.401Z,6.87
2018-09-17T22:37:44.659Z,6.57
2018-09-17T22:40:12.022Z,7.10
2018-09-17T22:42:39.509Z,7.50
2018-09-17T22:45:06.856Z,7.43
2018-09-17T22:47:34.544Z,7.50
2018-09-17T22:50:01.909Z,7.67
2018-09-17T22:52:29.239Z,7.10
2018-09-17T22:54:56.543Z,7.10
2018-09-17T22:57:23.903Z,7.40
2018-09-17T22:59:51.287Z,7.83
2018-09-17T23:02:20.617Z,7.87
2018-09-17T23:04:47.968Z,7.53
2018-09-17T23:07:15.295Z,7.53
2018-09-17T23:09:42.872Z,7.67
2018-09-17T23:12:10.253Z,7.93
2018-09-17T23:14:37.612Z,7.60
2018-09-17T23:17:04.977Z,7.57
2018-09-17T23:19:32.298Z,7.70
2018-09-17T23:21:59.630Z,7.10
2018-09-17T23:24:27.211Z,7.73
2018-09-17T23:26:54.644Z,7.27
2018-09-17T23:29:21.967Z,7.83
2018-09-17T23:31:49.285Z,7.50
2018-09-17T23:34:16.596Z,8.37
2018-09-17T23:36:43.896Z,7.50
2018-09-17T23:39:11.748Z,7.37
2018-09-17T23:41:39.614Z,6.90
2018-09-17T23:44:06.960Z,8.07
2018-09-17T23:46:35.141Z,6.97
2018-09-17T23:49:02.599Z,6.90
2018-09-17T23:51:30.054Z,6.67
2018-09-17T23:53:57.361Z,6.73
2018-09-17T23:56:24.677Z,6.97
2018-09-17T23:58:52.035Z,6.83
